Latheron, United Kingdom
Current Conditions -  °F | °C
As of 10:20 AM on Monday 26 Jan 2015 (Local Time) from EGPC Reporting Station
Rain Showers Rain Showers  
Wind Chill: 25°   Ceiling: Unl
Heat Index: 36°   Visibility: 6mi
Dew Point: 32°   Wind: 18mph
Humidity: 87%   Direction: 290°WNW
Pressure: 29.88"   Gusts: NA
Location:  58.29°N, 3.35°W
Report Text: EGPC 261020Z 29016KT 9999 VCSH FEW010 FEW014CB 02/00 Q1012
Loading
Personal Weather Stations






























Interactive Weather Map New forecast layout! Learn more

10-Day Weather Forecast

Advertisements
Track Severe Weather on mobile